Time;durP1;ratioP1;P1;durP2;ratioP2;P2;SDS_P1;SDS_P2;PMS_P1;PMS_P2;Temp;Humidity;BMP_temperature;BMP_pressure;BME280_temperature;BME280_humidity;BME280_pressure;Samples;Min_cycle;Max_cycle;Signal;HPM_P1;HPM_P2
2021/03/30 00:00:52;;;;;;;537.97;340.30;;;;;;;;;;4982737;28;20030;-78
2021/03/30 00:03:18;;;;;;;534.22;332.85;;;;;;;;;;5000533;28;20055;-81
2021/03/30 00:05:44;;;;;;;529.47;335.77;;;;;;;;;;4975812;28;20443;-81
2021/03/30 00:08:10;;;;;;;507.30;325.58;;;;;;;;;;5011142;28;20436;-79
2021/03/30 00:10:44;;;;;;;512.67;337.27;;;;;;;;;;5021243;28;20097;-77
2021/03/30 00:13:10;;;;;;;510.88;326.90;;;;;;;;;;4982938;28;20398;-78
2021/03/30 00:15:36;;;;;;;511.83;325.33;;;;;;;;;;4994159;28;20101;-78
2021/03/30 00:18:03;;;;;;;531.78;338.00;;;;;;;;;;5012239;28;20435;-79
2021/03/30 00:20:29;;;;;;;536.45;334.45;;;;;;;;;;5015917;28;20032;-78
2021/03/30 00:22:55;;;;;;;541.78;339.65;;;;;;;;;;4977466;28;20128;-79
2021/03/30 00:25:21;;;;;;;543.28;340.33;;;;;;;;;;4979465;28;20058;-78
2021/03/30 00:27:47;;;;;;;549.33;350.70;;;;;;;;;;4981633;28;20152;-79
2021/03/30 00:30:13;;;;;;;528.42;334.10;;;;;;;;;;4989720;28;20397;-77
2021/03/30 00:32:40;;;;;;;519.90;329.65;;;;;;;;;;5008075;28;20018;-79
2021/03/30 00:35:06;;;;;;;508.38;323.90;;;;;;;;;;4997901;28;20023;-78
2021/03/30 00:37:32;;;;;;;501.13;323.88;;;;;;;;;;5013491;28;20508;-79
2021/03/30 00:39:58;;;;;;;501.00;317.42;;;;;;;;;;4976534;28;20030;-80
2021/03/30 00:42:25;;;;;;;505.23;332.95;;;;;;;;;;4990014;28;20603;-79
2021/03/30 00:44:51;;;;;;;498.70;314.00;;;;;;;;;;4977813;28;20139;-78
2021/03/30 00:47:19;;;;;;;499.55;311.20;;;;;;;;;;4997105;28;20022;-78
2021/03/30 00:49:45;;;;;;;498.58;315.67;;;;;;;;;;4975938;28;20034;-79
2021/03/30 00:52:12;;;;;;;500.90;321.35;;;;;;;;;;5012705;28;20022;-79
2021/03/30 00:54:38;;;;;;;497.25;317.38;;;;;;;;;;4987031;28;20038;-79
2021/03/30 00:57:05;;;;;;;499.80;315.30;;;;;;;;;;4980178;28;20363;-77
2021/03/30 00:59:31;;;;;;;495.45;317.58;;;;;;;;;;4999766;28;20312;-79
2021/03/30 01:01:58;;;;;;;495.58;319.30;;;;;;;;;;4979104;28;20033;-77
2021/03/30 01:04:24;;;;;;;494.20;311.92;;;;;;;;;;4974158;28;20034;-78
2021/03/30 01:06:50;;;;;;;494.80;317.13;;;;;;;;;;4989643;28;20033;-78
2021/03/30 01:09:35;;;;;;;493.98;315.88;;;;;;;;;;5009375;28;20034;-78
2021/03/30 01:12:20;;;;;;;496.88;306.50;;;;;;;;;;4975916;28;20110;-79
2021/03/30 01:14:49;;;;;;;489.65;302.90;;;;;;;;;;4992785;28;20054;-79
2021/03/30 01:17:22;;;;;;;492.42;307.17;;;;;;;;;;4994656;28;20026;-78
2021/03/30 01:19:57;;;;;;;489.40;306.65;;;;;;;;;;4990457;28;20026;-77
2021/03/30 01:22:42;;;;;;;486.83;306.52;;;;;;;;;;4986858;28;20077;-78
2021/03/30 01:25:09;;;;;;;471.65;289.30;;;;;;;;;;4990104;28;20527;-78
2021/03/30 01:27:44;;;;;;;473.95;291.40;;;;;;;;;;4982454;28;20021;-78
2021/03/30 01:30:10;;;;;;;470.50;291.20;;;;;;;;;;5013511;28;20033;-78
2021/03/30 01:32:39;;;;;;;463.25;286.35;;;;;;;;;;5016312;28;20358;-81
2021/03/30 01:35:09;;;;;;;467.00;287.05;;;;;;;;;;4980313;28;20178;-77
2021/03/30 01:37:40;;;;;;;464.38;287.15;;;;;;;;;;4979236;28;20099;-78
2021/03/30 01:40:07;;;;;;;462.02;281.98;;;;;;;;;;4995394;28;20090;-78
2021/03/30 01:42:34;;;;;;;465.17;286.17;;;;;;;;;;4981366;28;21388;-78
2021/03/30 01:45:01;;;;;;;457.35;283.85;;;;;;;;;;4979447;28;20030;-79
2021/03/30 01:47:29;;;;;;;464.40;290.23;;;;;;;;;;5011058;28;20018;-78
2021/03/30 01:49:55;;;;;;;459.35;280.77;;;;;;;;;;4999433;28;20048;-79
2021/03/30 01:52:22;;;;;;;471.85;294.17;;;;;;;;;;5014572;28;20112;-78
2021/03/30 01:54:48;;;;;;;468.85;284.17;;;;;;;;;;4978077;28;20673;-79
2021/03/30 01:57:15;;;;;;;468.95;289.33;;;;;;;;;;4983771;28;20029;-79
2021/03/30 01:59:43;;;;;;;456.83;278.67;;;;;;;;;;4976546;28;20057;-78
2021/03/30 02:02:10;;;;;;;464.40;285.60;;;;;;;;;;5011579;28;20033;-78
2021/03/30 02:04:36;;;;;;;462.42;278.88;;;;;;;;;;4980751;28;20034;-78
2021/03/30 02:07:02;;;;;;;457.13;279.27;;;;;;;;;;4980449;28;20114;-80
2021/03/30 02:09:33;;;;;;;463.77;284.58;;;;;;;;;;4998589;28;20054;-79
2021/03/30 02:12:03;;;;;;;464.02;274.90;;;;;;;;;;4975914;28;20096;-78
2021/03/30 02:14:29;;;;;;;467.63;275.85;;;;;;;;;;4972096;28;20302;-78
2021/03/30 02:17:07;;;;;;;472.50;284.60;;;;;;;;;;4976133;28;20034;-79
2021/03/30 02:19:51;;;;;;;472.55;285.85;;;;;;;;;;4977754;28;20034;-78
2021/03/30 02:22:39;;;;;;;473.15;281.50;;;;;;;;;;4981058;28;20480;-79
2021/03/30 02:25:06;;;;;;;471.65;285.85;;;;;;;;;;4970800;28;20029;-78
2021/03/30 02:27:36;;;;;;;469.25;280.02;;;;;;;;;;4979412;28;20089;-78
2021/03/30 02:30:03;;;;;;;490.30;294.33;;;;;;;;;;4982271;28;20093;-79
2021/03/30 02:32:31;;;;;;;472.67;282.58;;;;;;;;;;4976422;28;20041;-78
2021/03/30 02:34:57;;;;;;;486.25;284.83;;;;;;;;;;4974754;28;20109;-78
2021/03/30 02:37:24;;;;;;;493.00;291.10;;;;;;;;;;4979118;28;20030;-79
2021/03/30 02:39:52;;;;;;;480.30;286.73;;;;;;;;;;4974832;28;20027;-79
2021/03/30 02:42:20;;;;;;;478.05;281.13;;;;;;;;;;4975375;28;20037;-79
2021/03/30 02:44:46;;;;;;;485.95;282.25;;;;;;;;;;4978245;28;20030;-79
2021/03/30 02:47:14;;;;;;;480.55;280.13;;;;;;;;;;4974308;28;20035;-78
2021/03/30 02:49:40;;;;;;;472.83;282.27;;;;;;;;;;4983787;28;20037;-79
2021/03/30 02:52:07;;;;;;;473.15;284.23;;;;;;;;;;4984868;28;20018;-77
2021/03/30 02:54:33;;;;;;;472.90;281.10;;;;;;;;;;4979796;28;20022;-79
2021/03/30 02:57:00;;;;;;;473.80;277.08;;;;;;;;;;4979178;28;20022;-79
2021/03/30 02:59:27;;;;;;;476.20;282.90;;;;;;;;;;4979653;28;20043;-79
2021/03/30 03:01:53;;;;;;;473.42;275.02;;;;;;;;;;4980496;28;20037;-78
2021/03/30 03:04:19;;;;;;;475.00;273.50;;;;;;;;;;4982421;28;20045;-80
2021/03/30 03:06:45;;;;;;;471.98;273.60;;;;;;;;;;4981100;28;20382;-79
2021/03/30 03:09:12;;;;;;;469.73;265.88;;;;;;;;;;4963542;28;20055;-78
2021/03/30 03:11:42;;;;;;;473.40;278.23;;;;;;;;;;4958629;28;20033;-78
2021/03/30 03:14:08;;;;;;;;;;;;;;;;;;4957007;28;20133;-79
2021/03/30 03:16:35;;;;;;;465.65;252.98;;;;;;;;;;5000742;28;20561;-79
2021/03/30 03:19:01;;;;;;;470.45;263.25;;;;;;;;;;4958841;28;20101;-80
2021/03/30 03:21:27;;;;;;;466.85;265.65;;;;;;;;;;4963164;28;20113;-80
2021/03/30 03:23:53;;;;;;;474.70;267.50;;;;;;;;;;4979730;28;20041;-78
2021/03/30 03:26:19;;;;;;;469.27;271.83;;;;;;;;;;4963382;28;20189;-78
2021/03/30 03:28:46;;;;;;;475.95;265.20;;;;;;;;;;4969300;28;20121;-81
2021/03/30 03:31:13;;;;;;;479.00;277.05;;;;;;;;;;4963465;28;20018;-80
2021/03/30 03:33:39;;;;;;;474.25;266.58;;;;;;;;;;4961420;28;20053;-80
2021/03/30 03:36:09;;;;;;;483.30;277.80;;;;;;;;;;4962820;28;20174;-78
2021/03/30 03:38:36;;;;;;;481.02;274.77;;;;;;;;;;4961369;28;20030;-78
2021/03/30 03:41:03;;;;;;;490.92;274.23;;;;;;;;;;4965265;28;20031;-78
2021/03/30 03:43:29;;;;;;;495.92;282.17;;;;;;;;;;4961157;28;20490;-80
2021/03/30 03:45:55;;;;;;;499.08;283.20;;;;;;;;;;4954658;28;20029;-80
2021/03/30 03:48:21;;;;;;;499.92;284.55;;;;;;;;;;4957498;28;20026;-79
2021/03/30 03:50:47;;;;;;;504.83;281.33;;;;;;;;;;4967732;28;20022;-79
2021/03/30 03:53:14;;;;;;;499.73;276.20;;;;;;;;;;4959978;28;20473;-78
2021/03/30 03:55:45;;;;;;;493.73;278.48;;;;;;;;;;4962912;28;20090;-78
2021/03/30 03:58:12;;;;;;;513.95;289.58;;;;;;;;;;4957543;28;20042;-79
2021/03/30 04:00:39;;;;;;;504.55;267.80;;;;;;;;;;4961484;28;20525;-78
2021/03/30 04:03:09;;;;;;;519.45;286.02;;;;;;;;;;4961955;28;20026;-78
2021/03/30 04:05:36;;;;;;;523.58;279.52;;;;;;;;;;4979269;28;20054;-79
2021/03/30 04:08:07;;;;;;;511.90;277.88;;;;;;;;;;4959248;28;20043;-79
2021/03/30 04:10:34;;;;;;;531.40;289.88;;;;;;;;;;4963002;28;20611;-79
2021/03/30 04:13:00;;;;;;;510.23;283.48;;;;;;;;;;4962184;28;20046;-79
2021/03/30 04:15:27;;;;;;;514.13;279.05;;;;;;;;;;4962472;28;20144;-79
2021/03/30 04:17:53;;;;;;;563.38;292.10;;;;;;;;;;4961063;28;20034;-79
2021/03/30 04:20:20;;;;;;;491.30;261.88;;;;;;;;;;4962241;28;20026;-78
2021/03/30 04:22:58;;;;;;;496.48;274.75;;;;;;;;;;4963463;28;20509;-80
2021/03/30 04:25:24;;;;;;;496.38;264.48;;;;;;;;;;4964070;28;20828;-81
2021/03/30 04:27:50;;;;;;;492.45;259.15;;;;;;;;;;4959655;28;20049;-80
2021/03/30 04:30:17;;;;;;;487.80;265.25;;;;;;;;;;4963863;28;20422;-79
2021/03/30 04:32:43;;;;;;;504.75;270.55;;;;;;;;;;4962657;28;20174;-80
2021/03/30 04:35:10;;;;;;;499.15;259.67;;;;;;;;;;4958046;28;20117;-79
2021/03/30 04:37:36;;;;;;;498.92;262.25;;;;;;;;;;4960081;28;20482;-81
2021/03/30 04:40:02;;;;;;;480.08;258.67;;;;;;;;;;4964031;28;20035;-80
2021/03/30 04:42:28;;;;;;;482.73;254.52;;;;;;;;;;4960382;28;20618;-79
2021/03/30 04:44:54;;;;;;;471.00;256.27;;;;;;;;;;4961915;28;20046;-79
2021/03/30 04:47:21;;;;;;;468.80;251.65;;;;;;;;;;4963784;28;20532;-79
2021/03/30 04:49:48;;;;;;;471.80;253.00;;;;;;;;;;4961462;28;20050;-79
2021/03/30 04:52:14;;;;;;;474.30;257.25;;;;;;;;;;4963694;28;20081;-79
2021/03/30 04:54:40;;;;;;;475.65;258.17;;;;;;;;;;4966596;28;20027;-79
2021/03/30 04:57:06;;;;;;;474.55;255.05;;;;;;;;;;4961548;28;20620;-77
2021/03/30 04:59:32;;;;;;;481.35;259.42;;;;;;;;;;4958684;28;20026;-80
2021/03/30 05:01:58;;;;;;;480.23;261.40;;;;;;;;;;4963412;28;20096;-80
2021/03/30 05:04:24;;;;;;;478.42;261.40;;;;;;;;;;4959942;28;20512;-79
2021/03/30 05:06:50;;;;;;;484.15;262.75;;;;;;;;;;4963925;28;20028;-82
2021/03/30 05:09:16;;;;;;;485.13;271.80;;;;;;;;;;4994298;28;20525;-80
2021/03/30 05:11:42;;;;;;;503.10;275.23;;;;;;;;;;4978647;28;20520;-83
2021/03/30 05:14:08;;;;;;;512.55;274.42;;;;;;;;;;4976786;28;20112;-80
2021/03/30 05:16:34;;;;;;;535.70;291.77;;;;;;;;;;4976916;28;20041;-80
2021/03/30 05:19:00;;;;;;;513.42;270.05;;;;;;;;;;4982771;28;20577;-81
2021/03/30 05:21:26;;;;;;;509.90;271.23;;;;;;;;;;4979368;28;20080;-81
2021/03/30 05:23:52;;;;;;;509.40;274.42;;;;;;;;;;4980941;28;20084;-81
2021/03/30 05:26:18;;;;;;;502.75;270.33;;;;;;;;;;4981675;28;20026;-83
2021/03/30 05:28:44;;;;;;;496.40;269.83;;;;;;;;;;4978674;28;20041;-81
2021/03/30 05:31:09;;;;;;;486.50;256.10;;;;;;;;;;4975369;28;20034;-80
2021/03/30 05:33:35;;;;;;;489.17;261.52;;;;;;;;;;4981163;28;20030;-81
2021/03/30 05:36:01;;;;;;;485.70;258.95;;;;;;;;;;4980122;28;20038;-80
2021/03/30 05:38:28;;;;;;;472.05;249.20;;;;;;;;;;4985096;28;20026;-80
2021/03/30 05:40:57;;;;;;;477.40;248.20;;;;;;;;;;4976417;28;20065;-81
2021/03/30 05:43:23;;;;;;;488.10;258.92;;;;;;;;;;4979674;28;20685;-79
2021/03/30 05:45:49;;;;;;;484.70;261.67;;;;;;;;;;4979535;28;20121;-82
2021/03/30 05:48:17;;;;;;;484.65;262.73;;;;;;;;;;4978047;28;20076;-81
2021/03/30 05:50:43;;;;;;;495.25;261.45;;;;;;;;;;4979104;28;20053;-81
2021/03/30 05:53:14;;;;;;;499.05;262.77;;;;;;;;;;4982375;28;20037;-80
2021/03/30 05:55:45;;;;;;;494.48;261.25;;;;;;;;;;4979535;28;20034;-81
2021/03/30 05:58:11;;;;;;;493.35;264.08;;;;;;;;;;4982190;28;20030;-78
2021/03/30 06:00:45;;;;;;;499.23;267.48;;;;;;;;;;4979107;28;20052;-81
2021/03/30 06:03:13;;;;;;;502.17;260.17;;;;;;;;;;4975719;28;20034;-81
2021/03/30 06:05:40;;;;;;;498.20;261.95;;;;;;;;;;4982202;28;20355;-81
2021/03/30 06:08:06;;;;;;;512.90;266.15;;;;;;;;;;4976493;28;20039;-80
2021/03/30 06:10:33;;;;;;;501.95;271.60;;;;;;;;;;4983412;28;20034;-82
2021/03/30 06:13:00;;;;;;;497.42;271.42;;;;;;;;;;4977260;28;20033;-84
2021/03/30 06:15:30;;;;;;;495.42;267.05;;;;;;;;;;4981668;28;20644;-80
2021/03/30 06:17:57;;;;;;;512.70;278.45;;;;;;;;;;4982233;28;20037;-82
2021/03/30 06:20:35;;;;;;;507.98;276.70;;;;;;;;;;4980836;28;20494;-81
2021/03/30 06:23:05;;;;;;;508.75;275.42;;;;;;;;;;4980465;28;20060;-80
2021/03/30 06:25:35;;;;;;;504.85;278.33;;;;;;;;;;4982522;28;20076;-80
2021/03/30 06:28:19;;;;;;;511.70;282.40;;;;;;;;;;4984219;28;20029;-80
2021/03/30 06:31:01;;;;;;;519.17;285.17;;;;;;;;;;5016882;28;20032;-80
2021/03/30 06:33:27;;;;;;;510.73;280.65;;;;;;;;;;4984660;28;20682;-81
2021/03/30 06:36:10;;;;;;;490.85;278.05;;;;;;;;;;4991876;28;20034;-81
2021/03/30 06:38:56;;;;;;;500.77;280.05;;;;;;;;;;4985845;28;20034;-80
2021/03/30 06:42:02;;;;;;;510.65;291.02;;;;;;;;;;4969249;28;20076;-83
2021/03/30 06:44:32;;;;;;;513.85;282.02;;;;;;;;;;4992312;28;20466;-81
2021/03/30 06:47:11;;;;;;;524.17;300.92;;;;;;;;;;4982115;28;20594;-81
2021/03/30 06:49:37;;;;;;;534.17;307.85;;;;;;;;;;4980805;28;20506;-80
2021/03/30 06:52:15;;;;;;;537.42;322.50;;;;;;;;;;5003572;28;20476;-80
2021/03/30 06:54:58;;;;;;;539.10;331.95;;;;;;;;;;5010400;28;20026;-81
2021/03/30 06:57:35;;;;;;;543.28;327.75;;;;;;;;;;4993015;28;20060;-81
2021/03/30 07:00:06;;;;;;;548.67;335.98;;;;;;;;;;4996917;28;20130;-80
2021/03/30 07:02:33;;;;;;;561.42;334.98;;;;;;;;;;5011298;28;20065;-81
2021/03/30 07:04:59;;;;;;;553.30;345.92;;;;;;;;;;4996602;28;20022;-80
2021/03/30 07:07:26;;;;;;;574.53;361.08;;;;;;;;;;4991790;28;20033;-80
2021/03/30 07:09:53;;;;;;;556.28;345.52;;;;;;;;;;4992487;28;20602;-79
2021/03/30 07:12:22;;;;;;;572.58;374.58;;;;;;;;;;4989233;28;20090;-82
2021/03/30 07:14:48;;;;;;;558.17;367.00;;;;;;;;;;4994491;28;20022;-80
2021/03/30 07:17:19;;;;;;;523.80;370.42;;;;;;;;;;4995130;28;20092;-81
2021/03/30 07:19:45;;;;;;;523.35;372.52;;;;;;;;;;4995172;28;20034;-82
2021/03/30 07:22:13;;;;;;;527.45;387.73;;;;;;;;;;4986264;28;20118;-81
2021/03/30 07:24:45;;;;;;;528.97;390.30;;;;;;;;;;4995405;28;20018;-79
2021/03/30 07:27:17;;;;;;;534.83;396.45;;;;;;;;;;4991267;28;20077;-79
2021/03/30 07:29:45;;;;;;;534.88;400.08;;;;;;;;;;5006109;28;20064;-79
2021/03/30 07:32:25;;;;;;;539.60;410.27;;;;;;;;;;4995149;28;20045;-79
2021/03/30 07:34:56;;;;;;;578.47;438.23;;;;;;;;;;4989631;28;20132;-81
2021/03/30 07:37:34;;;;;;;568.88;435.55;;;;;;;;;;5001892;28;20121;-80
2021/03/30 07:40:01;;;;;;;565.40;436.48;;;;;;;;;;4979336;28;20410;-79
2021/03/30 07:42:27;;;;;;;557.15;428.00;;;;;;;;;;4995885;28;20030;-81
2021/03/30 07:44:53;;;;;;;562.75;435.25;;;;;;;;;;5000371;28;20025;-79
2021/03/30 07:47:20;;;;;;;573.72;447.77;;;;;;;;;;4999467;28;20117;-79
2021/03/30 07:49:51;;;;;;;560.53;440.15;;;;;;;;;;4986010;28;20054;-81
2021/03/30 07:52:18;;;;;;;567.22;450.38;;;;;;;;;;4995445;28;20114;-79
2021/03/30 07:55:03;;;;;;;583.90;465.00;;;;;;;;;;4990003;28;20065;-80
2021/03/30 07:57:51;;;;;;;619.30;507.33;;;;;;;;;;4996401;28;20040;-82
2021/03/30 08:00:32;;;;;;;566.25;451.77;;;;;;;;;;5009339;28;20030;-81
2021/03/30 08:03:00;;;;;;;548.13;446.27;;;;;;;;;;4993787;28;20033;-80
2021/03/30 08:05:32;;;;;;;564.80;461.65;;;;;;;;;;4991954;28;20034;-78
2021/03/30 08:07:59;;;;;;;532.15;433.65;;;;;;;;;;4983102;28;20022;-81
2021/03/30 08:10:26;;;;;;;537.17;444.90;;;;;;;;;;4972755;28;20026;-80
2021/03/30 08:13:11;;;;;;;545.75;458.85;;;;;;;;;;4964840;28;20050;-81
2021/03/30 08:15:44;;;;;;;539.03;455.33;;;;;;;;;;4970552;28;20035;-80
2021/03/30 08:18:12;;;;;;;527.45;451.10;;;;;;;;;;4962366;28;20022;-79
2021/03/30 08:20:51;;;;;;;527.25;461.35;;;;;;;;;;4965939;28;20027;-76
2021/03/30 08:23:17;;;;;;;529.15;464.48;;;;;;;;;;4982260;28;20410;-78
2021/03/30 08:25:46;;;;;;;536.08;477.20;;;;;;;;;;4972094;28;20038;-80
2021/03/30 08:28:32;;;;;;;528.67;470.25;;;;;;;;;;4958464;28;20023;-78
2021/03/30 08:30:58;;;;;;;535.15;476.08;;;;;;;;;;4963268;28;20031;-81
2021/03/30 08:33:32;;;;;;;524.88;464.73;;;;;;;;;;4959629;28;20434;-78
2021/03/30 08:36:14;;;;;;;525.08;466.00;;;;;;;;;;4958618;28;20037;-80
2021/03/30 08:38:42;;;;;;;530.53;469.45;;;;;;;;;;4958277;28;20038;-78
2021/03/30 08:41:08;;;;;;;533.47;473.83;;;;;;;;;;4956936;28;20069;-79
2021/03/30 08:43:34;;;;;;;524.08;462.02;;;;;;;;;;4960922;28;20521;-77
2021/03/30 08:46:13;;;;;;;522.03;457.98;;;;;;;;;;4956273;28;20034;-79
2021/03/30 08:48:40;;;;;;;535.43;476.23;;;;;;;;;;4970395;28;20026;-78
2021/03/30 08:51:08;;;;;;;535.20;473.02;;;;;;;;;;4970441;28;20322;-76
2021/03/30 08:53:34;;;;;;;548.30;488.40;;;;;;;;;;4959832;28;20034;-78
2021/03/30 08:56:09;;;;;;;556.53;496.38;;;;;;;;;;4961571;28;20023;-81
2021/03/30 08:58:37;;;;;;;578.83;516.78;;;;;;;;;;4963071;28;20360;-79
2021/03/30 09:01:06;;;;;;;547.63;488.60;;;;;;;;;;4968059;28;20034;-80
2021/03/30 09:03:32;;;;;;;550.10;491.50;;;;;;;;;;4964118;28;20030;-80
2021/03/30 09:05:58;;;;;;;554.38;495.23;;;;;;;;;;4965732;28;20510;-81
2021/03/30 09:08:41;;;;;;;567.60;508.13;;;;;;;;;;4972257;28;20055;-79
2021/03/30 09:11:15;;;;;;;558.13;499.52;;;;;;;;;;4965257;28;20415;-79
2021/03/30 09:13:41;;;;;;;571.58;511.45;;;;;;;;;;4968207;28;20274;-81
2021/03/30 09:16:10;;;;;;;588.55;527.47;;;;;;;;;;4965712;28;20075;-80
2021/03/30 09:18:37;;;;;;;568.67;509.37;;;;;;;;;;4970599;28;20029;-81
2021/03/30 09:21:08;;;;;;;584.88;524.00;;;;;;;;;;4971622;28;20050;-80
2021/03/30 09:23:34;;;;;;;579.38;519.45;;;;;;;;;;4974383;28;20031;-82
2021/03/30 09:26:01;;;;;;;577.65;518.10;;;;;;;;;;4976033;28;20023;-81
2021/03/30 09:28:30;;;;;;;575.58;516.55;;;;;;;;;;4971628;28;20022;-79
2021/03/30 09:30:59;;;;;;;566.70;507.75;;;;;;;;;;4971883;28;20034;-82
2021/03/30 09:33:25;;;;;;;596.17;535.10;;;;;;;;;;4965571;28;20019;-81
2021/03/30 09:35:51;;;;;;;573.83;514.58;;;;;;;;;;4965809;28;20089;-82
2021/03/30 09:38:17;;;;;;;573.60;514.15;;;;;;;;;;4958948;28;20019;-80
2021/03/30 09:40:44;;;;;;;572.78;513.63;;;;;;;;;;4969500;28;20042;-81
2021/03/30 09:43:11;;;;;;;585.28;525.60;;;;;;;;;;4966512;28;20026;-81
2021/03/30 09:45:37;;;;;;;597.30;537.15;;;;;;;;;;4965931;28;20022;-83
2021/03/30 09:48:07;;;;;;;587.75;529.25;;;;;;;;;;4991985;28;20082;-83
2021/03/30 09:50:33;;;;;;;590.63;532.30;;;;;;;;;;4962789;28;20027;-81
2021/03/30 09:53:04;;;;;;;596.90;538.88;;;;;;;;;;4962925;28;20019;-82
2021/03/30 09:55:34;;;;;;;604.72;546.70;;;;;;;;;;4969404;28;20086;-82
2021/03/30 09:58:04;;;;;;;622.47;563.83;;;;;;;;;;4958765;28;20026;-82
2021/03/30 10:00:31;;;;;;;639.33;579.92;;;;;;;;;;4977837;28;20030;-85
2021/03/30 10:03:03;;;;;;;641.55;582.58;;;;;;;;;;4964120;28;20018;-82
2021/03/30 10:05:32;;;;;;;642.40;584.08;;;;;;;;;;4961611;28;20126;-81
2021/03/30 10:07:59;;;;;;;656.33;597.22;;;;;;;;;;4960111;28;20293;-84
2021/03/30 10:10:25;;;;;;;648.35;590.25;;;;;;;;;;4972340;28;20157;-82
2021/03/30 10:12:59;;;;;;;641.97;584.22;;;;;;;;;;4968266;28;20041;-84
2021/03/30 10:15:40;;;;;;;643.50;584.75;;;;;;;;;;4962833;28;20034;-82
2021/03/30 10:18:10;;;;;;;653.50;594.65;;;;;;;;;;4980378;28;20065;-82
2021/03/30 10:20:38;;;;;;;656.42;597.30;;;;;;;;;;4970576;28;20037;-86
2021/03/30 10:23:14;;;;;;;654.83;596.55;;;;;;;;;;4963169;28;20026;-82
2021/03/30 10:25:40;;;;;;;666.17;607.17;;;;;;;;;;4957653;28;20030;-81
2021/03/30 10:28:06;;;;;;;669.65;611.13;;;;;;;;;;4959064;28;20033;-82
2021/03/30 10:30:38;;;;;;;670.90;611.85;;;;;;;;;;4970763;28;20397;-85
2021/03/30 10:33:07;;;;;;;650.50;592.55;;;;;;;;;;4960280;28;20033;-82
2021/03/30 10:35:34;;;;;;;648.00;590.40;;;;;;;;;;4961800;28;20574;-81
2021/03/30 10:38:00;;;;;;;638.47;581.30;;;;;;;;;;4960778;28;20832;-81
2021/03/30 10:40:30;;;;;;;628.88;571.50;;;;;;;;;;4958871;28;20030;-81
2021/03/30 10:42:56;;;;;;;629.33;571.58;;;;;;;;;;4962985;28;20026;-82
2021/03/30 10:45:28;;;;;;;630.78;573.03;;;;;;;;;;4968516;28;20400;-83
2021/03/30 10:47:59;;;;;;;636.50;578.53;;;;;;;;;;4954084;28;20441;-81
2021/03/30 10:50:27;;;;;;;630.45;572.63;;;;;;;;;;4956918;28;20041;-81
2021/03/30 10:52:53;;;;;;;624.33;566.85;;;;;;;;;;4963299;28;20027;-82
2021/03/30 10:55:20;;;;;;;625.45;567.95;;;;;;;;;;4963784;28;20122;-83
2021/03/30 10:57:47;;;;;;;625.75;568.00;;;;;;;;;;4959853;28;20031;-83
2021/03/30 11:00:14;;;;;;;621.33;564.08;;;;;;;;;;4963312;28;20022;-82
2021/03/30 11:02:41;;;;;;;613.08;556.15;;;;;;;;;;4964334;28;20061;-83
2021/03/30 11:05:07;;;;;;;622.72;564.97;;;;;;;;;;4962144;28;20019;-83
2021/03/30 11:07:33;;;;;;;623.08;564.72;;;;;;;;;;4968527;28;20098;-81
2021/03/30 11:10:00;;;;;;;614.40;556.88;;;;;;;;;;4976736;28;20050;-80
2021/03/30 11:12:26;;;;;;;602.55;545.80;;;;;;;;;;5009673;28;20104;-80
2021/03/30 11:14:52;;;;;;;607.45;550.28;;;;;;;;;;4978200;28;20379;-81
2021/03/30 11:17:18;;;;;;;610.63;553.15;;;;;;;;;;4989821;28;20030;-83
2021/03/30 11:19:44;;;;;;;608.50;551.13;;;;;;;;;;4990272;28;20173;-81
2021/03/30 11:22:10;;;;;;;605.10;548.17;;;;;;;;;;5002482;28;20487;-81
2021/03/30 11:24:41;;;;;;;622.03;564.05;;;;;;;;;;4988852;28;20030;-84
2021/03/30 11:27:08;;;;;;;622.47;564.03;;;;;;;;;;4984898;28;20062;-81
2021/03/30 11:39:58;;;;;;;622.67;564.83;;;;;;;;;;5012190;28;20052;-82
2021/03/30 11:42:25;;;;;;;623.58;565.85;;;;;;;;;;5005057;28;20069;-81
2021/03/30 11:44:52;;;;;;;634.75;576.70;;;;;;;;;;4989513;28;20026;-80
2021/03/30 11:47:18;;;;;;;640.38;582.45;;;;;;;;;;5000930;28;20056;-82
2021/03/30 11:49:44;;;;;;;644.50;586.42;;;;;;;;;;4998479;28;20065;-82
2021/03/30 11:52:10;;;;;;;646.67;588.63;;;;;;;;;;4993881;28;20113;-83
2021/03/30 11:54:36;;;;;;;653.25;594.92;;;;;;;;;;4989932;28;20561;-82
2021/03/30 11:57:03;;;;;;;655.63;597.28;;;;;;;;;;4991633;28;20022;-81
2021/03/30 11:59:29;;;;;;;660.47;601.97;;;;;;;;;;4988803;28;20026;-82
2021/03/30 12:01:55;;;;;;;677.90;618.97;;;;;;;;;;4980625;28;20042;-81
2021/03/30 12:04:22;;;;;;;680.30;621.55;;;;;;;;;;4993720;28;20350;-79
2021/03/30 12:06:48;;;;;;;685.70;626.65;;;;;;;;;;4988438;28;20018;-83
2021/03/30 12:09:14;;;;;;;703.03;643.75;;;;;;;;;;4981733;28;20058;-84
2021/03/30 12:11:44;;;;;;;721.72;661.65;;;;;;;;;;4974104;28;20481;-83
2021/03/30 12:14:11;;;;;;;742.50;680.97;;;;;;;;;;4969122;28;20688;-82
2021/03/30 12:16:37;;;;;;;740.08;678.70;;;;;;;;;;4965478;28;20031;-82
2021/03/30 12:19:03;;;;;;;718.13;658.25;;;;;;;;;;4966678;28;20030;-81
2021/03/30 12:21:29;;;;;;;697.70;639.03;;;;;;;;;;4967469;28;20157;-82
2021/03/30 12:23:56;;;;;;;712.03;652.25;;;;;;;;;;4971538;28;20341;-83
2021/03/30 12:26:22;;;;;;;711.35;652.20;;;;;;;;;;4961214;28;20022;-83
2021/03/30 12:28:48;;;;;;;706.53;647.28;;;;;;;;;;4965263;28;20057;-83
2021/03/30 12:31:14;;;;;;;723.58;663.72;;;;;;;;;;4964169;28;20125;-83
2021/03/30 12:33:40;;;;;;;715.50;655.88;;;;;;;;;;4963746;28;20779;-85
2021/03/30 12:36:06;;;;;;;711.60;652.00;;;;;;;;;;4972625;28;20383;-86
2021/03/30 12:38:35;;;;;;;687.63;628.53;;;;;;;;;;4969036;28;20434;-81
2021/03/30 12:41:01;;;;;;;699.25;639.08;;;;;;;;;;4971310;28;20121;-81
2021/03/30 12:43:28;;;;;;;681.72;621.33;;;;;;;;;;4969302;28;20026;-81
2021/03/30 12:45:54;;;;;;;663.22;603.53;;;;;;;;;;4963442;28;20085;-87
2021/03/30 12:48:20;;;;;;;647.63;587.85;;;;;;;;;;4965695;28;20031;-82
2021/03/30 12:50:46;;;;;;;626.42;567.40;;;;;;;;;;4971913;28;20029;-84
2021/03/30 12:53:12;;;;;;;633.42;573.50;;;;;;;;;;4970453;28;20042;-82
2021/03/30 12:55:38;;;;;;;621.90;562.28;;;;;;;;;;4976250;28;20409;-84
2021/03/30 12:58:11;;;;;;;611.85;552.80;;;;;;;;;;4975362;28;20026;-84
2021/03/30 13:00:37;;;;;;;605.03;546.10;;;;;;;;;;4975411;28;20413;-82
2021/03/30 13:03:04;;;;;;;602.08;543.30;;;;;;;;;;4963840;28;20029;-80
2021/03/30 13:05:30;;;;;;;592.38;533.33;;;;;;;;;;4973172;28;20026;-82
2021/03/30 13:07:56;;;;;;;584.53;526.17;;;;;;;;;;4971802;28;20037;-82
2021/03/30 13:10:22;;;;;;;581.58;523.15;;;;;;;;;;4984470;28;20041;-82
2021/03/30 13:12:48;;;;;;;578.72;520.25;;;;;;;;;;4990174;28;20645;-81
2021/03/30 13:15:15;;;;;;;575.75;516.80;;;;;;;;;;4990254;28;20109;-81
2021/03/30 13:17:41;;;;;;;578.00;519.08;;;;;;;;;;4982280;28;20050;-82
2021/03/30 13:20:07;;;;;;;579.28;520.42;;;;;;;;;;4982798;28;20060;-82
2021/03/30 13:22:33;;;;;;;569.83;511.40;;;;;;;;;;4982014;28;20129;-80
2021/03/30 13:25:01;;;;;;;580.08;521.35;;;;;;;;;;4975526;28;20458;-82
2021/03/30 13:27:28;;;;;;;573.05;514.30;;;;;;;;;;4976870;28;20455;-81
2021/03/30 13:29:54;;;;;;;570.63;512.05;;;;;;;;;;4981210;28;20030;-81
2021/03/30 13:32:20;;;;;;;580.50;521.17;;;;;;;;;;4978713;28;20096;-81
2021/03/30 13:34:47;;;;;;;566.78;508.75;;;;;;;;;;4986215;28;20030;-81
2021/03/30 13:37:14;;;;;;;570.60;512.75;;;;;;;;;;4991507;28;20025;-82
2021/03/30 13:39:40;;;;;;;571.08;512.92;;;;;;;;;;4989937;28;20103;-80
2021/03/30 13:42:07;;;;;;;568.03;509.73;;;;;;;;;;4994338;28;20062;-80
2021/03/30 13:44:33;;;;;;;561.33;503.38;;;;;;;;;;4985334;28;20026;-81
2021/03/30 13:47:01;;;;;;;569.25;510.83;;;;;;;;;;4988784;28;20092;-83
2021/03/30 13:49:28;;;;;;;569.80;511.42;;;;;;;;;;4988957;28;20022;-82
2021/03/30 13:51:55;;;;;;;569.63;511.08;;;;;;;;;;4992386;28;20490;-82
2021/03/30 13:54:21;;;;;;;573.13;514.35;;;;;;;;;;4989773;28;20022;-83
2021/03/30 13:56:47;;;;;;;571.15;512.05;;;;;;;;;;4991564;28;20030;-82
2021/03/30 13:59:16;;;;;;;566.53;507.90;;;;;;;;;;4989366;28;20482;-82
2021/03/30 14:01:42;;;;;;;576.38;517.03;;;;;;;;;;4991191;28;20037;-83
2021/03/30 14:04:09;;;;;;;566.95;508.25;;;;;;;;;;4986785;28;20030;-81
2021/03/30 14:06:34;;;;;;;574.38;515.42;;;;;;;;;;4983955;28;21082;-82
2021/03/30 14:09:00;;;;;;;568.85;509.33;;;;;;;;;;4991822;28;20050;-81
2021/03/30 14:11:42;;;;;;;561.67;503.15;;;;;;;;;;5012090;28;20041;-83